createdAt,value
2023-02-15T00:01:39.084Z,111.25
2023-02-15T00:04:10.518Z,99.00
2023-02-15T00:06:40.198Z,104.33
2023-02-15T00:09:12.375Z,95.67
2023-02-15T00:11:45.039Z,92.00
2023-02-15T00:14:21.327Z,78.67
2023-02-15T00:16:54.267Z,97.33
2023-02-15T00:19:24.111Z,92.00
2023-02-15T00:21:53.834Z,80.33
2023-02-15T00:24:23.654Z,87.33
2023-02-15T00:26:53.418Z,88.67
2023-02-15T00:29:23.508Z,88.33
2023-02-15T00:31:53.631Z,100.00
2023-02-15T00:34:28.220Z,99.00
2023-02-15T00:36:58.283Z,93.00
2023-02-15T00:39:28.426Z,95.33
2023-02-15T00:41:58.066Z,95.67
2023-02-15T00:44:27.700Z,96.33
2023-02-15T00:46:57.375Z,102.33
2023-02-15T00:49:27.130Z,108.33
2023-02-15T00:51:56.865Z,96.67
2023-02-15T00:54:26.598Z,109.00
2023-02-15T00:56:56.336Z,81.33
2023-02-15T00:59:25.983Z,94.33
2023-02-15T01:01:55.641Z,86.67
2023-02-15T01:04:25.369Z,90.67
2023-02-15T01:06:54.999Z,104.33
2023-02-15T01:09:24.674Z,102.67
2023-02-15T01:11:54.448Z,97.00
2023-02-15T01:14:24.403Z,96.67
2023-02-15T01:16:54.100Z,101.33
2023-02-15T01:19:23.755Z,92.33
2023-02-15T01:21:53.393Z,101.33
2023-02-15T01:24:23.062Z,98.67
2023-02-15T01:26:52.751Z,99.67
2023-02-15T01:29:22.548Z,99.00
2023-02-15T01:31:52.545Z,102.33
2023-02-15T01:34:22.193Z,102.33
2023-02-15T01:36:51.845Z,100.00
2023-02-15T01:39:21.514Z,89.00
2023-02-15T01:41:52.200Z,106.00
2023-02-15T01:44:49.828Z,100.33
2023-02-15T01:47:54.393Z,94.67
2023-02-15T01:50:43.208Z,75.00
2023-02-15T01:53:27.152Z,101.67
2023-02-15T01:56:26.266Z,97.00
2023-02-15T01:58:59.725Z,98.33
2023-02-15T02:01:29.964Z,94.67
2023-02-15T02:04:39.977Z,84.00
2023-02-15T02:07:11.649Z,91.00
2023-02-15T02:09:41.578Z,87.00
2023-02-15T02:12:11.888Z,89.67
2023-02-15T02:14:42.918Z,87.33
2023-02-15T02:17:40.623Z,51.67
2023-02-15T02:20:46.385Z,83.33
2023-02-15T02:23:34.534Z,98.67
2023-02-15T02:26:58.413Z,89.00
2023-02-15T02:30:27.075Z,84.00
2023-02-15T02:33:29.896Z,76.00
2023-02-15T02:36:21.608Z,88.00
2023-02-15T02:39:05.926Z,75.67
2023-02-15T02:42:09.657Z,91.67
2023-02-15T02:44:55.344Z,76.33
2023-02-15T02:47:40.047Z,76.00
2023-02-15T02:50:22.893Z,11.00
2023-02-15T02:52:57.027Z,74.00
2023-02-15T02:55:50.158Z,83.33
2023-02-15T02:58:43.922Z,124.75
2023-02-15T03:01:29.405Z,100.33
2023-02-15T03:04:11.570Z,107.33
2023-02-15T03:06:58.813Z,90.33
2023-02-15T03:09:45.636Z,97.00
2023-02-15T03:12:34.190Z,95.67
2023-02-15T03:15:06.801Z,91.67
2023-02-15T03:17:44.059Z,85.33
2023-02-15T03:20:32.994Z,77.00
2023-02-15T03:23:15.136Z,86.00
2023-02-15T03:26:02.423Z,87.00
2023-02-15T03:28:46.641Z,87.00
2023-02-15T03:31:19.168Z,78.33
2023-02-15T03:34:01.274Z,75.67
2023-02-15T03:36:52.005Z,74.67
2023-02-15T03:39:45.974Z,74.00
2023-02-15T03:42:33.319Z,75.00
2023-02-15T03:45:16.823Z,71.00
2023-02-15T03:47:52.037Z,68.67
2023-02-15T03:50:57.652Z,68.33
2023-02-15T03:53:28.367Z,72.00
2023-02-15T03:55:58.098Z,75.33
2023-02-15T03:58:46.284Z,70.67
2023-02-15T04:01:52.045Z,73.00
2023-02-15T04:04:28.104Z,72.00
2023-02-15T04:06:58.027Z,75.33
2023-02-15T04:09:45.917Z,78.33
2023-02-15T04:12:15.629Z,76.67
2023-02-15T04:15:04.013Z,92.33
2023-02-15T04:17:33.742Z,78.00
2023-02-15T04:20:21.866Z,80.67
2023-02-15T04:23:09.673Z,78.33
2023-02-15T04:25:39.295Z,76.00
2023-02-15T04:28:09.215Z,77.00
2023-02-15T04:30:38.849Z,77.00
2023-02-15T04:33:08.403Z,76.00
2023-02-15T04:35:38.003Z,78.00
2023-02-15T04:38:07.685Z,80.67
2023-02-15T04:40:37.282Z,78.33
2023-02-15T04:43:06.861Z,85.33
2023-02-15T04:45:36.571Z,94.00
2023-02-15T04:48:06.237Z,86.00
2023-02-15T04:50:35.844Z,89.33
2023-02-15T04:53:05.449Z,88.67
2023-02-15T04:55:35.152Z,85.33
2023-02-15T04:58:04.820Z,85.33
2023-02-15T05:00:34.583Z,79.67
2023-02-15T05:03:04.581Z,81.67
2023-02-15T05:05:34.134Z,79.33
2023-02-15T05:08:03.827Z,77.00
2023-02-15T05:10:33.439Z,74.67
2023-02-15T05:13:03.022Z,74.33
2023-02-15T05:15:32.777Z,75.67
2023-02-15T05:18:02.658Z,77.00
2023-02-15T05:20:32.305Z,77.00
2023-02-15T05:23:01.953Z,80.00
2023-02-15T05:25:49.910Z,78.67
2023-02-15T05:28:22.540Z,88.67
2023-02-15T05:31:05.937Z,101.33
2023-02-15T05:33:36.265Z,96.67
2023-02-15T05:36:08.014Z,109.00
2023-02-15T05:38:38.931Z,103.00
2023-02-15T05:41:11.913Z,88.00
2023-02-15T05:43:41.785Z,88.00
2023-02-15T05:46:12.356Z,86.67
2023-02-15T05:48:42.073Z,99.67
2023-02-15T05:51:15.096Z,107.67
2023-02-15T05:53:44.860Z,91.00
2023-02-15T05:56:14.664Z,101.33
2023-02-15T05:58:44.524Z,101.67
2023-02-15T06:01:18.688Z,85.00
2023-02-15T06:03:48.436Z,84.33
2023-02-15T06:06:18.382Z,88.67
2023-02-15T06:08:48.059Z,98.00
2023-02-15T06:11:17.789Z,91.33
2023-02-15T06:13:47.519Z,99.00
2023-02-15T06:16:17.338Z,89.33
2023-02-15T06:18:47.092Z,87.33
2023-02-15T06:21:16.865Z,84.67
2023-02-15T06:23:45.828Z,66.33
2023-02-15T06:26:15.475Z,102.67
2023-02-15T06:28:45.180Z,103.33
2023-02-15T06:31:14.898Z,100.67
2023-02-15T06:33:44.614Z,99.67
2023-02-15T06:36:14.309Z,99.33
2023-02-15T06:38:44.798Z,112.50
2023-02-15T06:41:14.466Z,102.67
2023-02-15T06:43:44.233Z,98.33
2023-02-15T06:46:13.953Z,95.33
2023-02-15T06:48:44.683Z,108.00
2023-02-15T06:51:15.272Z,108.25
2023-02-15T06:53:45.041Z,80.67
2023-02-15T06:56:14.748Z,78.33
2023-02-15T06:58:46.941Z,83.00
2023-02-15T07:01:17.036Z,85.00
2023-02-15T07:03:46.824Z,87.33
2023-02-15T07:06:16.503Z,93.00
2023-02-15T07:08:46.193Z,92.67
2023-02-15T07:11:34.290Z,90.67
2023-02-15T07:14:03.816Z,86.00
2023-02-15T07:16:31.628Z,86.00
2023-02-15T07:19:01.259Z,88.33
2023-02-15T07:21:29.175Z,117.00
2023-02-15T07:23:59.959Z,89.00
2023-02-15T07:26:29.930Z,89.33
2023-02-15T07:28:59.559Z,84.00
2023-02-15T07:31:29.593Z,87.00
2023-02-15T07:33:59.155Z,94.00
2023-02-15T07:36:28.840Z,71.67
2023-02-15T07:38:58.428Z,79.33
2023-02-15T07:41:27.016Z,66.33
2023-02-15T07:43:56.628Z,80.67
2023-02-15T07:46:26.233Z,82.33
2023-02-15T07:48:56.867Z,99.00
2023-02-15T07:51:27.301Z,100.25
2023-02-15T07:53:57.120Z,79.33
2023-02-15T07:56:26.825Z,76.33
2023-02-15T07:58:56.911Z,89.67
2023-02-15T08:01:39.479Z,79.33
2023-02-15T08:04:12.063Z,75.33
2023-02-15T08:06:41.770Z,75.33
2023-02-15T08:09:16.166Z,78.00
2023-02-15T08:11:44.053Z,65.00
2023-02-15T08:14:18.737Z,75.33
2023-02-15T08:17:00.878Z,82.33
2023-02-15T08:19:33.693Z,74.00
2023-02-15T08:22:08.012Z,74.33
2023-02-15T08:24:38.999Z,82.67
2023-02-15T08:27:12.087Z,84.00
2023-02-15T08:29:43.366Z,75.00
2023-02-15T08:32:14.954Z,86.33
2023-02-15T08:34:44.679Z,91.00
2023-02-15T08:37:14.273Z,88.00
2023-02-15T08:39:44.562Z,72.33
2023-02-15T08:42:14.804Z,79.67
2023-02-15T08:44:44.310Z,61.33
2023-02-15T08:47:14.114Z,60.67
2023-02-15T08:49:42.821Z,59.00
2023-02-15T08:52:12.368Z,55.33
2023-02-15T08:54:41.882Z,56.67
2023-02-15T08:57:11.484Z,57.33
2023-02-15T08:59:40.951Z,54.33
2023-02-15T09:02:12.409Z,58.00
2023-02-15T09:04:42.007Z,55.00
2023-02-15T09:07:11.416Z,50.33
2023-02-15T09:09:40.892Z,50.67
2023-02-15T09:12:10.412Z,46.33
2023-02-15T09:14:39.878Z,47.67
2023-02-15T09:17:09.360Z,48.67
2023-02-15T09:19:38.840Z,51.67
2023-02-15T09:22:08.303Z,48.67
2023-02-15T09:24:37.087Z,41.50
2023-02-15T09:27:06.831Z,45.00
2023-02-15T09:29:35.636Z,45.00
2023-02-15T09:32:05.274Z,45.00
2023-02-15T09:34:35.169Z,44.50
2023-02-15T09:37:07.645Z,46.00
2023-02-15T09:39:44.094Z,50.00
2023-02-15T09:43:09.126Z,49.67
2023-02-15T09:46:40.359Z,47.33
2023-02-15T09:50:15.300Z,42.67
2023-02-15T09:53:19.589Z,48.00
2023-02-15T09:56:46.792Z,47.67
2023-02-15T09:59:36.565Z,47.00
2023-02-15T10:03:12.972Z,47.00
2023-02-15T10:06:32.434Z,49.67
2023-02-15T10:09:31.651Z,42.33
2023-02-15T10:12:56.003Z,42.00
2023-02-15T10:15:54.938Z,43.67
2023-02-15T10:19:06.432Z,36.00
2023-02-15T10:21:47.818Z,37.50
2023-02-15T10:24:26.156Z,42.00
2023-02-15T10:27:16.637Z,41.33
2023-02-15T10:29:57.381Z,41.00
2023-02-15T10:32:30.335Z,41.00
2023-02-15T10:35:15.341Z,44.33
2023-02-15T10:38:26.950Z,41.33
2023-02-15T10:41:09.717Z,41.00
2023-02-15T10:44:44.635Z,50.00
2023-02-15T10:47:49.759Z,43.67
2023-02-15T10:50:57.376Z,47.00
2023-02-15T10:54:09.201Z,44.00
2023-02-15T10:56:54.950Z,42.50
2023-02-15T10:59:50.360Z,38.50
2023-02-15T11:03:18.830Z,40.50
2023-02-15T11:06:14.616Z,42.67
2023-02-15T11:08:52.065Z,44.00
2023-02-15T11:11:36.183Z,44.67
2023-02-15T11:14:19.213Z,41.00
2023-02-15T11:16:54.282Z,42.50
2023-02-15T11:19:33.569Z,42.33
2023-02-15T11:22:07.621Z,43.00
2023-02-15T11:24:47.532Z,45.33
2023-02-15T11:27:34.304Z,46.67
2023-02-15T11:30:16.725Z,46.33
2023-02-15T11:32:52.614Z,46.00
2023-02-15T11:35:38.488Z,44.67
2023-02-15T11:38:21.687Z,44.67
2023-02-15T11:41:25.418Z,37.33
2023-02-15T11:44:08.038Z,44.00
2023-02-15T11:46:38.884Z,44.50
2023-02-15T11:49:38.923Z,46.67
2023-02-15T11:52:15.653Z,42.33
2023-02-15T11:54:51.559Z,42.33
2023-02-15T11:57:39.144Z,42.00
2023-02-15T12:00:37.290Z,45.00
2023-02-15T12:03:24.550Z,42.00
2023-02-15T12:06:03.821Z,44.00
2023-02-15T12:08:43.460Z,44.33
2023-02-15T12:11:39.498Z,43.67
2023-02-15T12:14:16.941Z,41.67
2023-02-15T12:16:57.033Z,42.33
2023-02-15T12:19:39.117Z,44.33
2023-02-15T12:22:26.334Z,43.67
2023-02-15T12:25:01.865Z,43.33
2023-02-15T12:27:34.605Z,43.00
2023-02-15T12:30:36.534Z,43.33
2023-02-15T12:33:46.623Z,39.33
2023-02-15T12:36:29.090Z,45.67
2023-02-15T12:39:13.598Z,49.00
2023-02-15T12:42:01.145Z,46.00
2023-02-15T12:44:38.256Z,45.33
2023-02-15T12:47:21.238Z,46.00
2023-02-15T12:50:19.148Z,47.00
2023-02-15T12:52:52.446Z,42.00
2023-02-15T12:55:32.273Z,48.33
2023-02-15T12:58:26.396Z,48.00
2023-02-15T13:01:22.396Z,49.67
2023-02-15T13:04:05.861Z,50.00
2023-02-15T13:06:37.652Z,42.67
2023-02-15T13:09:21.178Z,49.00
2023-02-15T13:11:51.214Z,49.67
2023-02-15T13:14:32.349Z,45.33
2023-02-15T13:17:07.761Z,47.33
2023-02-15T13:19:51.381Z,47.67
2023-02-15T13:22:43.293Z,44.00
2023-02-15T13:25:24.863Z,54.67
2023-02-15T13:28:03.043Z,47.33
2023-02-15T13:30:38.316Z,47.33
2023-02-15T13:33:31.900Z,47.00
2023-02-15T13:37:07.242Z,47.67
2023-02-15T13:39:47.403Z,48.00
2023-02-15T13:42:31.809Z,46.67
2023-02-15T13:46:02.979Z,47.33
2023-02-15T13:48:48.796Z,44.00
2023-02-15T13:51:41.828Z,46.33
2023-02-15T13:54:59.197Z,46.00
2023-02-15T13:57:52.580Z,47.67
2023-02-15T14:00:56.595Z,44.00
2023-02-15T14:03:57.872Z,48.00
2023-02-15T14:06:40.319Z,47.33
2023-02-15T14:10:04.539Z,46.50
2023-02-15T14:13:18.674Z,47.00
2023-02-15T14:16:38.708Z,44.67
2023-02-15T14:19:50.859Z,45.00
2023-02-15T14:22:44.414Z,47.00
2023-02-15T14:26:24.336Z,49.33
2023-02-15T14:29:24.398Z,52.00
2023-02-15T14:32:46.359Z,44.33
2023-02-15T14:35:29.997Z,49.00
2023-02-15T14:38:23.882Z,51.33
2023-02-15T14:41:08.742Z,46.67
2023-02-15T14:44:34.373Z,44.67
2023-02-15T14:47:23.733Z,44.33
2023-02-15T14:49:53.215Z,42.00
2023-02-15T14:52:22.795Z,42.33
2023-02-15T14:54:56.256Z,40.33
2023-02-15T14:57:28.792Z,40.00
2023-02-15T15:00:08.266Z,43.00
2023-02-15T15:02:51.142Z,43.67
2023-02-15T15:05:35.170Z,43.00
2023-02-15T15:08:06.967Z,44.00
2023-02-15T15:10:48.333Z,45.00
2023-02-15T15:13:32.821Z,43.67
2023-02-15T15:16:39.481Z,44.00
2023-02-15T15:19:53.715Z,41.50
2023-02-15T15:22:30.983Z,44.00
2023-02-15T15:25:13.194Z,46.33
2023-02-15T15:27:47.025Z,44.33
2023-02-15T15:30:19.328Z,45.33
2023-02-15T15:34:24.458Z,42.33
2023-02-15T15:37:29.537Z,47.67
2023-02-15T15:40:28.757Z,43.67
2023-02-15T15:43:37.501Z,43.33
2023-02-15T15:46:49.611Z,46.67
2023-02-15T15:49:23.227Z,41.00
2023-02-15T15:51:53.091Z,48.33
2023-02-15T15:54:25.854Z,49.00
2023-02-15T15:57:03.585Z,48.50
2023-02-15T15:59:36.230Z,47.33
2023-02-15T16:02:11.302Z,49.00
2023-02-15T16:04:40.712Z,48.00
2023-02-15T16:07:18.783Z,49.33
2023-02-15T16:10:08.204Z,52.33
2023-02-15T16:12:40.941Z,49.33
2023-02-15T16:15:45.781Z,51.00
2023-02-15T16:18:25.294Z,56.00
2023-02-15T16:21:01.949Z,39.50
2023-02-15T16:23:37.523Z,59.00
2023-02-15T16:26:28.298Z,59.67
2023-02-15T16:28:57.918Z,59.33
2023-02-15T16:31:27.668Z,64.00
2023-02-15T16:33:57.403Z,72.67
2023-02-15T16:36:29.922Z,87.67
2023-02-15T16:39:00.354Z,80.00
2023-02-15T16:41:31.886Z,93.00
2023-02-15T16:44:17.822Z,88.25
2023-02-15T16:46:55.028Z,74.67
2023-02-15T16:49:29.914Z,89.25
2023-02-15T16:52:09.664Z,102.50
2023-02-15T16:54:44.654Z,83.25
2023-02-15T16:57:30.911Z,88.00
2023-02-15T17:00:18.487Z,88.00
2023-02-15T17:03:25.337Z,103.75
2023-02-15T17:06:00.585Z,91.33
2023-02-15T17:08:38.155Z,87.00
2023-02-15T17:11:42.696Z,90.00
2023-02-15T17:14:19.096Z,91.50
2023-02-15T17:17:13.813Z,91.33
2023-02-15T17:19:55.328Z,86.00
2023-02-15T17:22:31.952Z,88.33
2023-02-15T17:25:06.591Z,104.00
2023-02-15T17:27:39.679Z,103.50
2023-02-15T17:30:33.778Z,88.33
2023-02-15T17:33:06.199Z,101.00
2023-02-15T17:35:35.344Z,115.50
2023-02-15T17:38:21.354Z,104.50
2023-02-15T17:40:51.006Z,110.67
2023-02-15T17:43:21.830Z,104.25
2023-02-15T17:45:53.592Z,99.25
2023-02-15T17:48:35.600Z,108.50
2023-02-15T17:51:12.623Z,110.25
2023-02-15T17:54:07.083Z,124.25
2023-02-15T17:56:39.820Z,122.00
2023-02-15T17:59:12.625Z,123.00
2023-02-15T18:02:09.434Z,106.50
2023-02-15T18:04:57.233Z,157.00
2023-02-15T18:07:46.437Z,195.50
2023-02-15T18:10:38.965Z,184.50
2023-02-15T18:13:08.869Z,118.25
2023-02-15T18:15:37.546Z,131.50
2023-02-15T18:18:13.285Z,115.50
2023-02-15T18:20:45.996Z,108.50
2023-02-15T18:23:20.365Z,126.75
2023-02-15T18:25:51.953Z,137.00
2023-02-15T18:28:23.826Z,147.00
2023-02-15T18:30:54.583Z,139.50
2023-02-15T18:33:41.491Z,126.25
2023-02-15T18:36:32.924Z,120.00
2023-02-15T18:39:08.922Z,116.00
2023-02-15T18:41:40.200Z,116.25
2023-02-15T18:44:13.349Z,134.50
2023-02-15T18:46:44.365Z,124.50
2023-02-15T18:49:15.183Z,118.00
2023-02-15T18:51:46.015Z,120.00
2023-02-15T18:54:26.128Z,128.25
2023-02-15T18:57:02.860Z,133.00
2023-02-15T18:59:36.039Z,120.75
2023-02-15T19:02:19.919Z,128.50
2023-02-15T19:04:50.903Z,136.50
2023-02-15T19:07:26.924Z,163.50
2023-02-15T19:09:59.964Z,146.00
2023-02-15T19:12:29.835Z,153.25
2023-02-15T19:14:59.861Z,149.00
2023-02-15T19:17:29.542Z,150.50
2023-02-15T19:20:00.040Z,154.50
2023-02-15T19:22:31.480Z,166.00
2023-02-15T19:25:08.113Z,151.00
2023-02-15T19:27:39.024Z,153.75
2023-02-15T19:30:30.120Z,153.25
2023-02-15T19:33:02.281Z,155.00
2023-02-15T19:35:35.919Z,157.00
2023-02-15T19:38:16.196Z,158.50
2023-02-15T19:40:48.670Z,159.25
2023-02-15T19:43:27.867Z,159.00
2023-02-15T19:45:57.478Z,168.25
2023-02-15T19:48:27.306Z,163.50
2023-02-15T19:50:57.257Z,161.75
2023-02-15T19:53:29.670Z,155.00
2023-02-15T19:56:01.050Z,148.75
2023-02-15T19:58:31.480Z,157.25
2023-02-15T20:01:03.302Z,146.25
2023-02-15T20:03:34.274Z,149.75
2023-02-15T20:06:03.067Z,165.00
2023-02-15T20:08:33.925Z,162.50
2023-02-15T20:11:09.680Z,163.25
2023-02-15T20:13:37.522Z,150.50
2023-02-15T20:16:09.894Z,149.25
2023-02-15T20:18:44.686Z,126.50
2023-02-15T20:21:17.267Z,135.00
2023-02-15T20:23:48.060Z,134.50
2023-02-15T20:26:19.893Z,136.25
2023-02-15T20:28:50.520Z,128.75
2023-02-15T20:31:21.989Z,134.00
2023-02-15T20:33:53.177Z,139.50
2023-02-15T20:36:24.825Z,145.75
2023-02-15T20:38:57.397Z,141.25
2023-02-15T20:41:37.649Z,82.00
2023-02-15T20:44:29.254Z,136.50
2023-02-15T20:47:01.647Z,142.50
2023-02-15T20:49:32.221Z,152.00
2023-02-15T20:52:03.906Z,165.00
2023-02-15T20:54:36.811Z,165.00
2023-02-15T20:57:12.058Z,149.25
2023-02-15T20:59:42.608Z,115.33
2023-02-15T21:02:23.990Z,162.00
2023-02-15T21:04:55.590Z,158.00
2023-02-15T21:07:26.218Z,147.25
2023-02-15T21:09:56.774Z,157.75
2023-02-15T21:12:27.477Z,148.50
2023-02-15T21:14:58.343Z,155.25
2023-02-15T21:17:28.874Z,151.75
2023-02-15T21:19:58.584Z,163.33
2023-02-15T21:22:29.244Z,158.25
2023-02-15T21:24:58.973Z,140.33
2023-02-15T21:27:30.084Z,150.25
2023-02-15T21:30:01.180Z,159.25
2023-02-15T21:32:31.848Z,153.50
2023-02-15T21:35:02.478Z,123.50
2023-02-15T21:37:36.438Z,157.75
2023-02-15T21:40:28.401Z,158.25
2023-02-15T21:43:18.353Z,159.00
2023-02-15T21:46:06.957Z,145.33
2023-02-15T21:48:37.500Z,158.50
2023-02-15T21:51:25.758Z,162.00
2023-02-15T21:53:56.301Z,160.25
2023-02-15T21:56:24.518Z,157.50
2023-02-15T21:58:55.056Z,135.00
2023-02-15T22:01:28.128Z,153.75
2023-02-15T22:03:59.902Z,108.00
2023-02-15T22:06:30.415Z,155.00
2023-02-15T22:09:00.934Z,156.25
2023-02-15T22:11:32.157Z,158.50
2023-02-15T22:14:02.672Z,164.50
2023-02-15T22:16:33.392Z,150.25
2023-02-15T22:19:01.261Z,154.00
2023-02-15T22:21:31.887Z,152.00
2023-02-15T22:24:02.516Z,130.25
2023-02-15T22:26:32.354Z,119.67
2023-02-15T22:29:02.930Z,121.50
2023-02-15T22:31:33.563Z,125.75
2023-02-15T22:34:04.146Z,122.25
2023-02-15T22:36:34.954Z,125.50
2023-02-15T22:39:04.774Z,141.00
2023-02-15T22:41:35.343Z,123.75
2023-02-15T22:44:05.159Z,126.00
2023-02-15T22:46:35.977Z,133.50
2023-02-15T22:49:06.572Z,131.75
2023-02-15T22:51:37.032Z,119.25
2023-02-15T22:54:08.538Z,146.25
2023-02-15T22:56:52.391Z,150.75
2023-02-15T22:59:34.225Z,155.00
2023-02-15T23:02:06.569Z,143.50
2023-02-15T23:04:37.039Z,133.75
2023-02-15T23:07:21.617Z,143.33
2023-02-15T23:09:52.071Z,141.25
2023-02-15T23:12:49.827Z,149.00
2023-02-15T23:15:20.378Z,146.00
2023-02-15T23:17:50.903Z,142.75
2023-02-15T23:20:20.494Z,144.25
2023-02-15T23:22:50.049Z,60.80
2023-02-15T23:25:24.534Z,140.50
2023-02-15T23:27:57.140Z,133.33
2023-02-15T23:30:28.023Z,118.00
2023-02-15T23:32:58.916Z,132.33
2023-02-15T23:35:28.635Z,123.67
2023-02-15T23:37:59.171Z,122.25
2023-02-15T23:40:47.555Z,110.50
2023-02-15T23:43:22.838Z,113.67
2023-02-15T23:45:52.540Z,105.33
2023-02-15T23:48:39.410Z,105.33
2023-02-15T23:51:11.542Z,99.00
2023-02-15T23:53:41.235Z,86.00
2023-02-15T23:56:15.505Z,97.67
2023-02-15T23:58:46.814Z,90.33
